Time;durP1;ratioP1;P1;durP2;ratioP2;P2;SDS_P1;SDS_P2;PMS_P1;PMS_P2;Temp;Humidity;BMP_temperature;BMP_pressure;BME280_temperature;BME280_humidity;BME280_pressure;Samples;Min_cycle;Max_cycle;Signal;HPM_P1;HPM_P2
2022/03/05 00:00:36;;;;;;;21.27;11.88;;;;;;;-3.42;85.04;98710.13;5065993;28;20127;-67
2022/03/05 00:03:02;;;;;;;28.88;11.93;;;;;;;-3.40;85.05;98704.22;5066201;28;20071;-67
2022/03/05 00:05:28;;;;;;;25.45;12.32;;;;;;;-3.48;85.21;98704.78;5066381;28;20021;-67
2022/03/05 00:07:53;;;;;;;21.02;9.63;;;;;;;-3.54;85.41;98705.41;5066329;28;20021;-67
2022/03/05 00:10:19;;;;;;;21.35;10.68;;;;;;;-3.33;84.92;98710.44;5066248;28;20031;-67
2022/03/05 00:12:51;;;;;;;21.98;9.30;;;;;;;-3.37;84.58;98704.31;5065983;28;20028;-67
2022/03/05 00:15:17;;;;;;;22.33;12.05;;;;;;;-3.44;84.42;98693.75;5066035;28;20043;-67
2022/03/05 00:17:44;;;;;;;22.35;9.50;;;;;;;-3.56;84.95;98699.34;5066045;28;20016;-67
2022/03/05 00:20:10;;;;;;;17.65;8.73;;;;;;;-3.47;85.24;98694.53;5065942;28;20023;-67
2022/03/05 00:22:36;;;;;;;21.60;9.05;;;;;;;-3.41;84.93;98701.59;5065927;28;20020;-67
2022/03/05 00:25:03;;;;;;;26.23;9.00;;;;;;;-3.62;85.01;98693.09;5065987;28;20082;-67
2022/03/05 00:27:28;;;;;;;17.05;9.10;;;;;;;-3.85;85.11;98696.50;5065759;28;20028;-67
2022/03/05 00:29:54;;;;;;;19.33;9.80;;;;;;;-3.74;86.08;98695.22;5065753;28;20208;-67
2022/03/05 00:32:19;;;;;;;31.63;10.85;;;;;;;-3.76;85.63;98702.00;5065853;28;20088;-67
2022/03/05 00:34:45;;;;;;;23.83;8.48;;;;;;;-3.71;86.24;98706.50;5065926;28;20100;-67
2022/03/05 00:37:11;;;;;;;24.83;10.93;;;;;;;-3.65;86.85;98698.13;5065745;28;20017;-67
2022/03/05 00:39:36;;;;;;;15.63;8.80;;;;;;;-3.64;86.30;98702.47;5065450;28;20025;-67
2022/03/05 00:42:03;;;;;;;19.48;8.50;;;;;;;-3.65;85.67;98703.25;5065567;28;20024;-67
2022/03/05 00:44:28;;;;;;;23.50;9.20;;;;;;;-3.73;85.86;98703.00;5065893;28;20208;-67
2022/03/05 00:46:54;;;;;;;27.08;9.68;;;;;;;-3.80;85.25;98710.44;5065460;28;20021;-67
2022/03/05 00:49:21;;;;;;;23.08;10.75;;;;;;;-3.69;85.91;98706.53;5065583;28;20047;-67
2022/03/05 00:51:46;;;;;;;26.73;9.13;;;;;;;-3.61;85.36;98712.88;5065368;28;20029;-67
2022/03/05 00:54:12;;;;;;;26.58;11.07;;;;;;;-3.74;85.52;98711.53;5065308;28;20028;-67
2022/03/05 00:56:37;;;;;;;27.25;11.07;;;;;;;-3.85;85.28;98722.22;5065426;28;20047;-67
2022/03/05 00:59:03;;;;;;;19.08;9.35;;;;;;;-3.93;85.05;98718.50;5065255;28;20025;-67
2022/03/05 01:01:28;;;;;;;18.33;8.48;;;;;;;-3.85;85.35;98717.09;5064926;28;20078;-67
2022/03/05 01:03:53;;;;;;;17.35;8.25;;;;;;;-3.83;85.74;98707.75;5065317;28;20024;-67
2022/03/05 01:06:19;;;;;;;19.83;10.38;;;;;;;-3.86;86.31;98708.47;5065096;28;20020;-67
2022/03/05 01:08:44;;;;;;;20.95;10.77;;;;;;;-3.94;85.33;98703.88;5065103;28;20021;-67
2022/03/05 01:11:15;;;;;;;28.35;10.20;;;;;;;-3.87;85.82;98704.16;5065197;28;20017;-67
2022/03/05 01:13:40;;;;;;;13.98;7.82;;;;;;;-3.97;85.67;98706.31;5065235;28;20025;-67
2022/03/05 01:16:06;;;;;;;22.50;10.90;;;;;;;-4.03;85.50;98701.84;5065007;28;20368;-67
2022/03/05 01:18:31;;;;;;;15.25;8.30;;;;;;;-4.07;85.91;98705.13;5064723;28;20020;-67
2022/03/05 01:20:57;;;;;;;21.45;9.63;;;;;;;-4.09;85.94;98706.75;5064871;28;20288;-67
2022/03/05 01:23:22;;;;;;;18.05;8.98;;;;;;;-4.06;85.95;98705.97;5064790;28;20090;-67
2022/03/05 01:25:47;;;;;;;21.48;11.00;;;;;;;-3.91;86.27;98701.41;5064113;28;20080;-67
2022/03/05 01:28:13;;;;;;;18.05;9.35;;;;;;;-3.91;86.07;98698.84;5064968;28;20020;-67
2022/03/05 01:30:39;;;;;;;23.70;9.82;;;;;;;-3.99;86.20;98697.72;5064535;28;20033;-67
2022/03/05 01:33:04;;;;;;;15.40;8.05;;;;;;;-4.09;86.02;98695.59;5064662;28;20017;-67
2022/03/05 01:35:30;;;;;;;27.02;10.13;;;;;;;-4.10;86.45;98691.25;5064518;28;20017;-67
2022/03/05 01:37:56;;;;;;;14.57;8.75;;;;;;;-4.14;86.12;98691.97;5064568;28;20194;-67
2022/03/05 01:40:22;;;;;;;17.15;8.65;;;;;;;-4.12;86.34;98690.34;5064507;28;20017;-67
2022/03/05 01:42:48;;;;;;;22.70;10.32;;;;;;;-4.12;86.66;98703.19;5064125;28;20028;-67
2022/03/05 01:45:13;;;;;;;15.77;9.00;;;;;;;-4.20;85.51;98697.75;5064473;28;20041;-67
2022/03/05 01:47:39;;;;;;;19.90;9.95;;;;;;;-4.26;85.70;98697.53;5064447;28;20072;-67
2022/03/05 01:50:06;;;;;;;26.25;10.95;;;;;;;-4.32;85.71;98707.56;5064187;28;20033;-67
2022/03/05 01:52:31;;;;;;;17.50;8.95;;;;;;;-4.26;86.75;98717.19;5064192;28;20028;-67
2022/03/05 01:54:57;;;;;;;21.73;10.68;;;;;;;-4.26;86.92;98706.91;5064300;28;20096;-67
2022/03/05 01:57:22;;;;;;;25.23;9.20;;;;;;;-4.22;86.52;98708.78;5064111;28;20032;-67
2022/03/05 01:59:48;;;;;;;29.92;11.02;;;;;;;-4.27;86.41;98705.16;5063881;28;20119;-67
2022/03/05 02:02:14;;;;;;;21.67;7.20;;;;;;;-4.18;86.70;98705.53;5064023;28;20040;-67
2022/03/05 02:04:40;;;;;;;27.33;10.30;;;;;;;-4.25;86.72;98712.09;5064162;28;20084;-67
2022/03/05 02:07:05;;;;;;;19.77;9.40;;;;;;;-4.22;86.87;98716.47;5064155;28;20025;-67
2022/03/05 02:09:31;;;;;;;20.83;9.15;;;;;;;-4.16;86.57;98709.00;5063770;28;20025;-67
2022/03/05 02:11:56;;;;;;;25.50;8.85;;;;;;;-4.25;86.13;98714.69;5055561;28;20240;-67
2022/03/05 02:14:22;;;;;;;32.00;12.40;;;;;;;-4.25;86.75;98716.38;5062636;28;20025;-67
2022/03/05 02:16:47;;;;;;;17.27;10.35;;;;;;;-4.27;86.98;98712.88;5063764;28;20123;-67
2022/03/05 02:19:13;;;;;;;16.73;8.98;;;;;;;-4.30;86.84;98712.75;5063845;28;20037;-67
2022/03/05 02:21:38;;;;;;;15.35;9.35;;;;;;;-4.52;87.04;98709.31;5063812;28;20027;-67
2022/03/05 02:24:04;;;;;;;12.43;6.38;;;;;;;-4.50;88.65;98717.97;5063579;28;20336;-67
2022/03/05 02:26:30;;;;;;;15.70;8.65;;;;;;;-4.40;89.05;98714.06;5063781;28;20021;-67
2022/03/05 02:28:55;;;;;;;14.70;6.28;;;;;;;-4.51;88.01;98705.97;5063642;28;20048;-67
2022/03/05 02:31:22;;;;;;;13.02;6.93;;;;;;;-4.47;88.70;98707.81;5063732;28;20033;-67
2022/03/05 02:33:52;;;;;;;10.65;6.68;;;;;;;-4.50;89.72;98712.84;5063692;28;20029;-67
2022/03/05 02:36:18;;;;;;;13.85;7.57;;;;;;;-4.40;89.88;98708.94;5063492;28;20032;-67
2022/03/05 02:38:43;;;;;;;16.45;7.40;;;;;;;-4.36;89.92;98704.81;5063547;28;20025;-67
2022/03/05 02:41:08;;;;;;;10.43;6.10;;;;;;;-4.27;89.84;98705.16;5063659;28;20059;-67
2022/03/05 02:43:34;;;;;;;19.20;8.38;;;;;;;-4.32;89.16;98706.66;5063741;28;20024;-67
2022/03/05 02:45:59;;;;;;;13.57;6.13;;;;;;;-4.39;88.36;98704.69;5063520;28;20020;-67
2022/03/05 02:48:25;;;;;;;17.50;8.13;;;;;;;-4.32;87.53;98704.09;5063550;28;20044;-67
2022/03/05 02:50:51;;;;;;;10.95;6.80;;;;;;;-4.42;86.97;98697.75;5063659;28;20025;-67
2022/03/05 02:53:17;;;;;;;13.43;7.50;;;;;;;-4.53;87.41;98702.44;5063602;28;20326;-67
2022/03/05 02:55:43;;;;;;;19.77;7.28;;;;;;;-4.68;86.44;98696.69;5063488;28;20055;-67
2022/03/05 02:58:09;;;;;;;16.33;8.82;;;;;;;-4.80;87.16;98691.06;5063393;28;20317;-67
2022/03/05 03:00:35;;;;;;;14.85;8.23;;;;;;;-4.86;87.91;98695.97;5063266;28;20245;-67
2022/03/05 03:03:02;;;;;;;21.80;9.75;;;;;;;-4.74;89.46;98698.13;5063515;28;20319;-67
2022/03/05 03:05:27;;;;;;;17.67;9.85;;;;;;;-4.73;90.48;98703.34;5063334;28;20044;-67
2022/03/05 03:07:54;;;;;;;15.55;8.40;;;;;;;-4.65;89.81;98707.06;5063286;28;20033;-67
2022/03/05 03:10:19;;;;;;;14.38;8.77;;;;;;;-4.69;89.79;98705.22;5063260;28;20051;-67
2022/03/05 03:12:45;;;;;;;17.67;10.13;;;;;;;-4.69;89.56;98705.22;5063317;28;20364;-67
2022/03/05 03:15:13;;;;;;;16.50;9.35;;;;;;;-4.64;89.62;98706.28;5063070;28;20020;-67
2022/03/05 03:17:44;;;;;;;14.52;8.27;;;;;;;-4.65;88.75;98707.06;5063265;28;20066;-67
2022/03/05 03:20:12;;;;;;;23.17;8.97;;;;;;;-4.72;87.61;98705.09;5063177;28;20025;-67
2022/03/05 03:22:38;;;;;;;15.77;9.52;;;;;;;-4.75;87.84;98699.81;5063196;28;20016;-67
2022/03/05 03:25:04;;;;;;;19.20;8.77;;;;;;;-4.69;87.80;98705.22;5063020;28;20067;-67
2022/03/05 03:27:30;;;;;;;25.80;9.30;;;;;;;-4.65;87.51;98696.81;5056538;28;20032;-67
2022/03/05 03:29:56;;;;;;;18.70;10.68;;;;;;;-4.80;87.37;98705.59;5063078;28;20092;-67
2022/03/05 03:32:21;;;;;;;15.50;8.75;;;;;;;-4.83;87.69;98698.66;5063048;28;20052;-67
2022/03/05 03:34:47;;;;;;;20.98;8.88;;;;;;;-4.78;87.96;98702.25;5063070;28;20021;-67
2022/03/05 03:37:12;;;;;;;18.00;8.13;;;;;;;-4.85;87.62;98702.84;5063224;28;20032;-67
2022/03/05 03:39:38;;;;;;;25.48;8.60;;;;;;;-4.86;87.48;98703.66;5063016;28;20028;-67
2022/03/05 03:42:03;;;;;;;13.88;7.68;;;;;;;-4.74;87.27;98701.56;5063008;28;20047;-67
2022/03/05 03:44:29;;;;;;;17.98;8.98;;;;;;;-4.91;86.58;98702.56;5062807;28;20029;-67
2022/03/05 03:46:56;;;;;;;21.33;9.30;;;;;;;-5.01;88.01;98700.44;5063008;28;20024;-67
2022/03/05 03:49:23;;;;;;;23.50;8.43;;;;;;;-5.00;88.80;98697.06;5066026;28;20024;-67
2022/03/05 03:51:48;;;;;;;15.93;7.35;;;;;;;-4.94;88.29;98705.00;5066327;28;20032;-67
2022/03/05 03:54:14;;;;;;;20.52;9.45;;;;;;;-4.96;88.41;98709.22;5066498;28;20025;-67
2022/03/05 03:56:39;;;;;;;16.00;9.18;;;;;;;-4.89;88.33;98706.09;5066660;28;20020;-67
2022/03/05 03:59:05;;;;;;;22.77;9.63;;;;;;;-4.96;87.66;98698.97;5066439;28;20343;-67
2022/03/05 04:01:30;;;;;;;16.67;6.60;;;;;;;-4.97;87.56;98710.03;5066249;28;20048;-67
2022/03/05 04:03:56;;;;;;;19.95;7.63;;;;;;;-4.95;87.37;98698.13;5066038;28;20021;-67
2022/03/05 04:06:21;;;;;;;12.18;6.45;;;;;;;-4.92;87.74;98705.97;5066366;28;20032;-67
2022/03/05 04:08:48;;;;;;;15.18;7.32;;;;;;;-5.04;87.26;98700.31;5066154;28;20049;-67
2022/03/05 04:11:18;;;;;;;17.30;7.38;;;;;;;-4.99;87.33;98708.22;5066458;28;20021;-67
2022/03/05 04:13:45;;;;;;;39.38;7.18;;;;;;;-5.01;87.47;98710.72;5066070;28;20021;-67
2022/03/05 04:16:12;;;;;;;10.32;5.38;;;;;;;-5.04;87.39;98710.56;5066098;28;20029;-67
2022/03/05 04:18:37;;;;;;;15.82;7.40;;;;;;;-5.06;87.16;98707.06;5065971;28;20269;-67
2022/03/05 04:21:04;;;;;;;20.45;8.40;;;;;;;-5.09;86.76;98711.22;5066123;28;20016;-67
2022/03/05 04:23:30;;;;;;;12.82;6.60;;;;;;;-5.16;86.35;98709.19;5066014;28;20016;-67
2022/03/05 04:25:55;;;;;;;10.00;5.97;;;;;;;-5.09;87.13;98709.50;5065691;28;20024;-67
2022/03/05 04:28:20;;;;;;;16.70;8.10;;;;;;;-5.12;87.17;98704.22;5065965;28;20387;-67
2022/03/05 04:30:46;;;;;;;19.33;7.50;;;;;;;-5.03;87.24;98711.47;5065751;28;20242;-67
2022/03/05 04:33:12;;;;;;;14.68;6.95;;;;;;;-5.11;87.54;98713.72;5065856;28;20025;-67
2022/03/05 04:35:37;;;;;;;15.15;6.00;;;;;;;-5.17;87.49;98715.13;5065788;28;20244;-67
2022/03/05 04:38:04;;;;;;;12.52;7.75;;;;;;;-5.31;86.71;98711.09;5065694;28;20013;-67
2022/03/05 04:40:29;;;;;;;17.42;6.55;;;;;;;-5.15;87.35;98727.22;5065749;28;20024;-67
2022/03/05 04:42:55;;;;;;;11.73;5.78;;;;;;;-5.18;87.53;98716.84;5065699;28;20044;-67
2022/03/05 04:45:20;;;;;;;10.73;6.20;;;;;;;-5.25;87.43;98719.91;5065393;28;20025;-67
2022/03/05 04:47:46;;;;;;;13.45;5.88;;;;;;;-5.29;87.60;98723.16;5065637;28;20025;-67
2022/03/05 04:50:12;;;;;;;18.40;7.38;;;;;;;-5.29;87.05;98719.72;5065274;28;20029;-67
2022/03/05 04:52:38;;;;;;;18.73;7.78;;;;;;;-5.28;88.14;98719.78;5065511;28;20025;-67
2022/03/05 04:55:06;;;;;;;11.70;6.22;;;;;;;-5.30;88.32;98724.00;5065698;28;20324;-67
2022/03/05 04:57:32;;;;;;;12.68;6.68;;;;;;;-5.21;87.94;98737.22;5065592;28;20312;-67
2022/03/05 04:59:57;;;;;;;12.70;5.80;;;;;;;-5.24;87.39;98729.38;5064102;28;20075;-67
2022/03/05 05:02:23;;;;;;;16.42;6.80;;;;;;;-5.30;87.56;98729.13;5065370;28;20025;-67
2022/03/05 05:04:48;;;;;;;14.63;6.28;;;;;;;-5.41;87.24;98727.75;5065024;28;20025;-67
2022/03/05 05:07:15;;;;;;;14.02;6.65;;;;;;;-5.38;87.67;98727.03;5065240;28;20028;-67
2022/03/05 05:09:41;;;;;;;9.82;4.95;;;;;;;-5.31;88.06;98724.78;5064963;28;20103;-67
2022/03/05 05:12:08;;;;;;;16.48;7.93;;;;;;;-5.31;88.49;98724.78;5065048;28;20020;-67
2022/03/05 05:14:33;;;;;;;13.95;6.28;;;;;;;-5.37;89.40;98731.34;5064901;28;20047;-67
2022/03/05 05:16:58;;;;;;;18.02;7.75;;;;;;;-5.29;88.83;98736.00;5064954;28;20308;-67
2022/03/05 05:19:30;;;;;;;13.05;6.05;;;;;;;-5.29;89.39;98737.66;5065000;28;20062;-67
2022/03/05 05:21:59;;;;;;;24.90;13.05;;;;;;;-5.29;89.70;98742.81;5064854;28;20017;-67
2022/03/05 05:24:27;;;;;;;14.55;7.60;;;;;;;-5.36;88.02;98739.13;5064733;28;20024;-67
2022/03/05 05:26:54;;;;;;;23.85;12.52;;;;;;;-5.37;87.83;98736.47;5064665;28;20035;-67
2022/03/05 05:29:21;;;;;;;31.17;11.02;;;;;;;-5.44;88.05;98732.75;5064792;28;20024;-67
2022/03/05 05:31:46;;;;;;;22.38;11.45;;;;;;;-5.29;88.28;98736.00;5064692;28;20217;-67
2022/03/05 05:34:12;;;;;;;18.45;8.25;;;;;;;-5.43;87.53;98739.66;5064520;28;20020;-67
2022/03/05 05:36:38;;;;;;;33.20;11.75;;;;;;;-5.48;87.54;98741.13;5064618;28;20021;-67
2022/03/05 05:39:09;;;;;;;22.77;11.90;;;;;;;-5.49;87.85;98744.50;5064373;28;20028;-67
2022/03/05 05:41:35;;;;;;;17.30;8.60;;;;;;;-5.39;87.63;98754.38;5064524;28;20039;-67
2022/03/05 05:44:03;;;;;;;18.00;7.70;;;;;;;-5.41;87.79;98755.97;5064442;28;20025;-67
2022/03/05 05:46:29;;;;;;;23.65;10.32;;;;;;;-5.52;87.11;98759.75;5064467;28;20040;-67
2022/03/05 05:48:56;;;;;;;13.05;6.22;;;;;;;-5.46;87.50;98757.47;5064270;28;20020;-67
2022/03/05 05:51:21;;;;;;;13.65;5.95;;;;;;;-5.50;87.74;98758.16;5064349;28;20020;-67
2022/03/05 05:53:47;;;;;;;15.57;5.20;;;;;;;-5.53;87.20;98758.00;5064316;28;20334;-67
2022/03/05 05:56:12;;;;;;;17.60;6.90;;;;;;;-5.54;87.67;98771.63;5064070;28;20096;-67
2022/03/05 05:58:37;;;;;;;14.00;7.03;;;;;;;-5.43;87.27;98774.66;5064202;28;20088;-67
2022/03/05 06:01:03;;;;;;;14.90;6.03;;;;;;;-5.37;86.91;98764.69;5063945;28;20047;-67
2022/03/05 06:03:29;;;;;;;12.88;6.18;;;;;;;-5.45;87.05;98777.16;5064293;28;20309;-67
2022/03/05 06:05:58;;;;;;;20.92;6.47;;;;;;;-5.44;87.46;98778.06;5064170;28;20024;-67
2022/03/05 06:08:23;;;;;;;17.52;7.07;;;;;;;-5.36;86.97;98781.81;5063847;28;20024;-67
2022/03/05 06:10:49;;;;;;;15.52;5.63;;;;;;;-5.42;86.99;98792.69;5063727;28;20025;-67
2022/03/05 06:13:15;;;;;;;11.00;5.68;;;;;;;-5.50;87.07;98788.91;5062618;28;20243;-67
2022/03/05 06:15:41;;;;;;;11.70;5.75;;;;;;;-5.47;87.62;98789.03;5062961;28;20143;-67
2022/03/05 06:18:06;;;;;;;12.65;5.63;;;;;;;-5.40;87.85;98796.22;5063011;28;20217;-67
2022/03/05 06:20:32;;;;;;;13.32;6.68;;;;;;;-5.50;87.27;98788.91;5062861;28;20012;-67
2022/03/05 06:22:57;;;;;;;11.50;3.55;;;;;;;-5.53;87.48;98783.66;5062907;28;20185;-67
2022/03/05 06:25:22;;;;;;;14.50;5.03;;;;;;;-5.41;87.72;98794.44;5061516;28;20081;-67
2022/03/05 06:27:48;;;;;;;14.43;6.03;;;;;;;-5.37;88.37;98793.78;5062037;28;20031;-67
2022/03/05 06:30:13;;;;;;;15.23;5.68;;;;;;;-5.19;87.58;98797.16;5063034;28;20025;-67
2022/03/05 06:32:39;;;;;;;13.38;5.38;;;;;;;-5.17;87.26;98800.66;5062869;28;20139;-67
2022/03/05 06:35:06;;;;;;;18.23;7.30;;;;;;;-5.01;87.33;98799.63;5062928;28;20324;-67
2022/03/05 06:37:32;;;;;;;15.05;5.55;;;;;;;-4.75;86.94;98801.63;5062995;28;20024;-67
2022/03/05 06:39:58;;;;;;;7.45;5.30;;;;;;;-4.58;86.33;98804.09;5062335;28;20040;-67
2022/03/05 06:42:23;;;;;;;7.07;3.97;;;;;;;-4.24;85.71;98813.19;5062758;28;20101;-67
2022/03/05 06:44:50;;;;;;;14.32;6.30;;;;;;;-3.95;84.93;98812.66;5062643;28;20036;-67
2022/03/05 06:47:16;;;;;;;9.75;4.47;;;;;;;-3.72;83.79;98817.00;5063091;28;20201;-67
2022/03/05 06:49:41;;;;;;;9.60;5.22;;;;;;;-3.31;83.27;98827.19;5062699;28;20032;-67
2022/03/05 06:52:07;;;;;;;14.20;6.32;;;;;;;-3.04;81.33;98823.91;5062221;28;20060;-67
2022/03/05 06:54:32;;;;;;;15.23;7.00;;;;;;;-2.63;79.85;98821.09;5062794;28;20024;-67
2022/03/05 06:56:58;;;;;;;16.80;5.90;;;;;;;-2.28;78.90;98827.44;5062823;28;20127;-67
2022/03/05 06:59:24;;;;;;;14.63;6.63;;;;;;;-2.05;77.56;98828.22;5062311;28;20321;-66
2022/03/05 07:01:50;;;;;;;14.15;7.00;;;;;;;-1.70;76.92;98825.06;5062262;28;20045;-67
2022/03/05 07:04:15;;;;;;;14.30;6.18;;;;;;;-1.35;76.05;98830.50;5062395;28;20047;-67
2022/03/05 07:06:41;;;;;;;21.40;8.70;;;;;;;-0.86;74.92;98830.19;5062286;28;20405;-67
2022/03/05 07:09:06;;;;;;;17.80;7.72;;;;;;;-0.83;73.86;98828.56;5062598;28;20027;-67
2022/03/05 07:11:32;;;;;;;15.65;7.35;;;;;;;-0.23;73.09;98830.22;5062466;28;20212;-67
2022/03/05 07:13:58;;;;;;;25.25;8.52;;;;;;;-0.19;72.60;98834.63;5062442;28;20025;-67
2022/03/05 07:16:23;;;;;;;21.38;8.68;;;;;;;0.47;72.01;98831.94;5062145;28;20084;-67
2022/03/05 07:18:49;;;;;;;18.88;9.05;;;;;;;0.69;70.09;98839.38;5062017;28;20112;-67
2022/03/05 07:21:14;;;;;;;22.95;9.48;;;;;;;1.08;68.73;98829.84;5062694;28;20013;-67
2022/03/05 07:23:40;;;;;;;25.17;9.68;;;;;;;1.40;68.25;98829.66;5064743;28;20033;-67
2022/03/05 07:26:05;;;;;;;31.85;10.90;;;;;;;1.62;67.25;98836.97;5066079;28;20023;-67
2022/03/05 07:28:31;;;;;;;27.15;12.02;;;;;;;1.82;67.88;98834.75;5065756;28;20021;-67
2022/03/05 07:30:57;;;;;;;28.48;11.25;;;;;;;2.21;66.35;98832.84;5065831;28;20028;-67
2022/03/05 07:33:23;;;;;;;23.63;11.60;;;;;;;2.53;65.52;98834.22;5066616;28;20044;-67
2022/03/05 07:35:48;;;;;;;38.38;13.10;;;;;;;2.74;64.63;98818.06;5066353;28;20355;-68
2022/03/05 07:38:14;;;;;;;42.38;14.68;;;;;;;3.04;64.38;98829.75;5066007;28;20096;-65
2022/03/05 07:40:39;;;;;;;59.67;19.65;;;;;;;3.40;63.47;98830.22;5065947;28;20362;-65
2022/03/05 07:43:04;;;;;;;62.80;22.38;;;;;;;3.71;63.22;98842.75;5065801;28;20028;-65
2022/03/05 07:45:30;;;;;;;44.72;17.88;;;;;;;4.10;62.71;98845.75;5065476;28;20023;-66
2022/03/05 07:47:55;;;;;;;80.88;26.27;;;;;;;3.82;62.80;98842.84;5065694;28;20083;-65
2022/03/05 07:50:21;;;;;;;86.32;26.35;;;;;;;3.49;65.78;98837.28;5064842;28;20025;-65
2022/03/05 07:52:46;;;;;;;111.75;40.45;;;;;;;4.84;63.31;98845.47;5065724;28;20348;-65
2022/03/05 07:55:12;;;;;;;70.07;26.70;;;;;;;5.35;60.31;98846.59;5065715;28;20261;-65
2022/03/05 07:57:37;;;;;;;65.70;24.83;;;;;;;5.59;60.32;98845.81;5064807;28;20044;-64
2022/03/05 08:00:05;;;;;;;75.60;25.58;;;;;;;6.19;59.30;98846.00;5065655;28;20047;-65
2022/03/05 08:02:31;;;;;;;72.07;26.48;;;;;;;6.55;58.39;98843.41;5067368;28;20016;-65
2022/03/05 08:04:57;;;;;;;66.05;24.60;;;;;;;6.76;57.57;98839.91;5059860;28;20020;-65
2022/03/05 08:07:23;;;;;;;71.55;25.77;;;;;;;6.83;57.95;98837.28;5064513;28;20247;-65
2022/03/05 08:09:48;;;;;;;44.00;18.95;;;;;;;6.78;57.74;98833.81;5066515;28;20025;-65
2022/03/05 08:12:14;;;;;;;55.13;21.55;;;;;;;6.99;59.71;98831.16;5064958;28;20074;-65
2022/03/05 08:14:41;;;;;;;48.38;18.25;;;;;;;7.91;55.74;98842.13;5067206;28;20021;-65
2022/03/05 08:17:07;;;;;;;44.60;16.80;;;;;;;8.16;54.22;98833.25;5068050;28;20058;-65
2022/03/05 08:19:32;;;;;;;35.92;14.18;;;;;;;8.61;54.56;98814.56;5065254;28;20379;-65
2022/03/05 08:21:58;;;;;;;52.08;20.48;;;;;;;9.20;53.83;98828.88;5065094;28;20320;-65
2022/03/05 08:24:23;;;;;;;47.88;20.65;;;;;;;9.68;51.46;98833.56;5071168;28;20032;-65
2022/03/05 08:26:49;;;;;;;34.13;13.38;;;;;;;8.82;49.53;98822.25;5065050;28;20017;-65
2022/03/05 08:29:14;;;;;;;53.47;19.92;;;;;;;8.95;51.54;98827.38;5064944;28;20048;-65
2022/03/05 08:31:40;;;;;;;36.88;13.00;;;;;;;9.32;48.33;98819.09;5065810;28;20021;-64
2022/03/05 08:34:05;;;;;;;25.95;11.23;;;;;;;9.99;47.73;98819.09;5065684;28;20217;-65
2022/03/05 08:36:32;;;;;;;26.70;12.13;;;;;;;10.59;44.35;98813.81;5065829;28;20091;-65
2022/03/05 08:38:58;;;;;;;31.10;11.75;;;;;;;10.56;44.63;98807.72;5065621;28;20028;-65
2022/03/05 08:41:24;;;;;;;19.70;9.88;;;;;;;10.41;44.06;98805.34;5065834;28;20059;-65
2022/03/05 08:43:51;;;;;;;25.17;9.35;;;;;;;10.65;44.66;98797.91;5066512;28;20035;-66
2022/03/05 08:46:17;;;;;;;22.08;9.07;;;;;;;10.66;44.24;98793.50;5065588;28;20074;-65
2022/03/05 08:48:42;;;;;;;17.42;8.63;;;;;;;10.42;44.27;98793.91;5065518;28;20091;-65
2022/03/05 08:51:08;;;;;;;17.67;8.65;;;;;;;10.32;43.26;98777.41;5065738;28;20021;-65
2022/03/05 08:53:34;;;;;;;19.98;8.50;;;;;;;11.19;44.32;98796.03;5065335;28;20017;-65
2022/03/05 08:55:59;;;;;;;16.70;8.30;;;;;;;11.30;42.00;98785.28;5065842;28;20036;-65
2022/03/05 08:58:25;;;;;;;17.13;7.93;;;;;;;11.27;41.89;98783.59;5065945;28;20017;-65
2022/03/05 09:00:51;;;;;;;17.02;8.00;;;;;;;10.57;42.48;98798.94;5065613;28;20387;-65
2022/03/05 09:03:17;;;;;;;19.02;8.55;;;;;;;10.49;41.92;98792.91;5065587;28;20024;-65
2022/03/05 09:05:43;;;;;;;18.42;7.15;;;;;;;10.97;40.94;98801.75;5065076;28;20043;-65
2022/03/05 09:13:19;;;;;;;15.43;7.00;;;;;;;11.66;39.65;98793.34;1441898;26;20085;-65
2022/03/05 09:15:45;;;;;;;16.80;7.38;;;;;;;10.45;39.77;98789.47;5006077;28;20221;-65
2022/03/05 09:18:11;;;;;;;14.23;6.75;;;;;;;11.05;40.13;98800.72;5006216;28;20033;-65
2022/03/05 09:20:37;;;;;;;15.50;7.45;;;;;;;10.46;41.25;98800.88;5005624;28;20029;-65
2022/03/05 09:23:03;;;;;;;13.88;6.07;;;;;;;9.86;41.65;98801.75;5005955;28;20037;-65
2022/03/05 09:25:28;;;;;;;13.50;6.43;;;;;;;10.55;40.99;98813.88;5005812;28;20026;-65
2022/03/05 09:27:54;;;;;;;14.18;6.47;;;;;;;10.46;40.58;98800.88;5005833;28;20034;-65
2022/03/05 09:30:20;;;;;;;12.40;6.05;;;;;;;11.12;39.53;98815.50;5004123;28;20332;-65
2022/03/05 09:32:46;;;;;;;15.00;6.28;;;;;;;11.37;39.20;98819.41;5005720;28;20030;-65
2022/03/05 09:35:11;;;;;;;16.00;5.97;;;;;;;10.94;39.18;98807.91;5005682;28;20412;-65
2022/03/05 09:37:37;;;;;;;16.45;7.10;;;;;;;10.93;38.48;98809.69;5005565;28;20026;-65
2022/03/05 09:40:05;;;;;;;13.75;5.75;;;;;;;11.39;37.94;98814.94;5005642;28;20379;-65
2022/03/05 09:42:30;;;;;;;11.25;5.35;;;;;;;11.87;37.36;98808.69;5005427;28;20045;-65
2022/03/05 09:44:56;;;;;;;13.32;6.13;;;;;;;12.14;36.29;98810.72;5005376;28;20332;-65
2022/03/05 09:47:22;;;;;;;10.98;5.57;;;;;;;11.71;36.95;98816.97;5004970;28;20022;-65
2022/03/05 09:49:48;;;;;;;10.25;5.30;;;;;;;11.89;35.41;98817.44;5005346;28;20026;-65
2022/03/05 09:52:14;;;;;;;12.77;5.38;;;;;;;10.39;37.06;98815.91;5005255;28;20029;-65
2022/03/05 09:54:39;;;;;;;10.93;5.15;;;;;;;11.04;36.24;98830.56;5005301;28;20030;-65
2022/03/05 09:57:13;;;;;;;12.57;5.72;;;;;;;11.61;34.96;98837.34;5005476;28;20022;-65
2022/03/05 09:59:40;;;;;;;10.57;4.97;;;;;;;11.86;36.06;98837.72;5005045;28;20018;-65
2022/03/05 10:02:07;;;;;;;12.13;5.47;;;;;;;12.15;35.94;98815.09;5005140;28;20026;-65
2022/03/05 10:04:32;;;;;;;14.75;6.53;;;;;;;11.67;35.91;98832.00;5005343;28;20190;-65
2022/03/05 10:07:10;;;;;;;11.13;4.97;;;;;;;10.12;38.25;98836.47;5005124;28;20056;-65
2022/03/05 10:09:36;;;;;;;11.55;4.90;;;;;;;10.91;35.63;98836.94;5005048;28;20064;-64
2022/03/05 10:12:02;;;;;;;11.63;5.38;;;;;;;11.41;34.84;98821.06;5004901;28;20018;-64
2022/03/05 10:14:27;;;;;;;12.40;5.53;;;;;;;10.14;35.98;98811.03;5004751;28;20046;-64
2022/03/05 10:17:04;;;;;;;9.43;5.43;;;;;;;10.24;36.48;98825.75;5007460;28;20049;-65
2022/03/05 10:19:29;;;;;;;13.35;4.90;;;;;;;10.70;35.70;98827.63;5004964;28;20052;-67
2022/03/05 10:21:59;;;;;;;10.20;4.53;;;;;;;10.21;35.88;98820.56;5004779;28;20022;-65
2022/03/05 10:24:44;;;;;;;10.73;4.18;;;;;;;11.04;35.47;98827.06;5004571;28;20396;-65
2022/03/05 10:27:10;;;;;;;15.32;5.65;;;;;;;10.78;35.36;98838.94;5004352;28;20038;-65
2022/03/05 10:29:39;;;;;;;12.05;4.63;;;;;;;11.04;36.45;98825.28;5004714;28;20309;-65
2022/03/05 10:32:07;;;;;;;12.88;5.07;;;;;;;11.24;34.72;98841.63;5004539;28;20026;-65
2022/03/05 10:34:41;;;;;;;10.00;4.45;;;;;;;11.34;33.78;98835.28;5004921;28;20313;-65
2022/03/05 10:37:07;;;;;;;10.00;4.38;;;;;;;10.85;33.58;98815.97;5018843;28;20076;-67
2022/03/05 10:39:33;;;;;;;11.05;5.13;;;;;;;10.42;35.17;98825.50;5024301;28;20026;-66
2022/03/05 10:41:59;;;;;;;15.10;5.22;;;;;;;9.98;34.86;98820.00;5005231;28;20042;-66
2022/03/05 10:44:24;;;;;;;12.45;5.57;;;;;;;10.64;36.23;98827.75;5005892;28;20025;-65
2022/03/05 10:47:01;;;;;;;11.13;5.20;;;;;;;10.50;36.35;98815.69;5004797;28;20357;-66
2022/03/05 10:49:31;;;;;;;12.48;6.07;;;;;;;10.54;36.40;98820.88;5004405;28;20034;-66
2022/03/05 10:52:02;;;;;;;12.57;5.85;;;;;;;10.57;35.95;98830.53;5004669;28;20026;-66
2022/03/05 10:54:42;;;;;;;13.68;6.05;;;;;;;9.78;37.27;98819.41;5003989;28;20022;-66
2022/03/05 10:57:10;;;;;;;11.52;5.55;;;;;;;9.69;38.06;98819.50;5002318;28;20093;-66
2022/03/05 10:59:41;;;;;;;14.18;5.88;;;;;;;9.91;37.55;98821.81;5008470;28;20022;-66
2022/03/05 11:02:07;;;;;;;12.30;5.50;;;;;;;9.97;36.74;98823.50;5008494;28;20029;-66
2022/03/05 11:04:37;;;;;;;14.10;5.25;;;;;;;9.80;36.45;98809.72;5008451;28;20256;-66
2022/03/05 11:07:04;;;;;;;11.82;5.07;;;;;;;9.51;37.48;98819.72;5008362;28;20022;-66
2022/03/05 11:09:30;;;;;;;9.63;4.25;;;;;;;9.71;36.76;98818.59;5008408;28;20320;-66
2022/03/05 11:11:59;;;;;;;11.52;5.28;;;;;;;9.44;36.96;98807.56;5022405;28;20030;-67
2022/03/05 11:14:25;;;;;;;14.40;5.53;;;;;;;9.42;36.66;98825.09;5026903;28;20046;-66
2022/03/05 11:16:50;;;;;;;17.30;5.38;;;;;;;9.53;36.17;98812.72;5027864;28;20084;-66
2022/03/05 11:19:16;;;;;;;13.20;5.65;;;;;;;9.14;36.51;98797.44;5027961;28;20089;-66
2022/03/05 11:21:42;;;;;;;10.50;4.63;;;;;;;8.71;38.79;98797.00;5028187;28;20021;-66
2022/03/05 11:24:11;;;;;;;15.75;5.53;;;;;;;9.11;37.37;98805.34;5027893;28;20026;-66